< < Back
Terminal Aerodrome Forecast


Current Version              Previous Versions:   1  2  3  4  5  6  7  8  9  

Terminal Aerodrome Forecast

678
FTUS44 KOHX 210000 AAB
TAFBNA
TAF AMD
KBNA 210053Z 2101/2124 18006KT P6SM VCTS BKN050CB BKN100 OVC250
     FM210130 25007KT P6SM SCT050 BKN100 OVC250
     FM210500 00000KT P6SM SCT250
      TEMPO 2109/2112 4SM BR
     FM211600 25007KT P6SM SCT050=



Latest METAR

167
SAUS70 KWBC 210400 RRC
MTRBNA
METAR KBNA 210353Z 16005KT 10SM OVC140 22/22 A3009 RMK AO2 RAE44 SLP183
P0000 T02220217


USA.gov is the U.S. government's official web portal to all federal, state and local government web resources and services.